createdAt,value
2023-11-22T00:02:04.298Z,84.33
2023-11-22T00:04:31.663Z,84.86
2023-11-22T00:06:58.677Z,84.79
2023-11-22T00:09:25.754Z,85.03
2023-11-22T00:11:52.773Z,84.71
2023-11-22T00:14:19.936Z,84.77
2023-11-22T00:16:47.603Z,84.79
2023-11-22T00:19:18.351Z,84.98
2023-11-22T00:21:45.762Z,84.58
2023-11-22T00:24:13.135Z,85.01
2023-11-22T00:26:40.493Z,85.05
2023-11-22T00:29:07.574Z,85.02
2023-11-22T00:31:34.707Z,84.73
2023-11-22T00:34:01.951Z,85.00
2023-11-22T00:36:28.968Z,84.67
2023-11-22T00:38:56.068Z,84.93
2023-11-22T00:41:23.220Z,84.73
2023-11-22T00:43:50.347Z,85.06
2023-11-22T00:46:17.392Z,85.20
2023-11-22T00:48:45.665Z,85.28
2023-11-22T00:51:14.048Z,85.01
2023-11-22T00:53:41.212Z,85.42
2023-11-22T00:56:11.308Z,85.19
2023-11-22T00:58:38.466Z,85.09
2023-11-22T01:01:06.451Z,84.91
2023-11-22T01:03:33.672Z,84.67
2023-11-22T01:06:00.824Z,84.90
2023-11-22T01:08:27.840Z,85.00
2023-11-22T01:10:55.012Z,84.89
2023-11-22T01:13:23.524Z,84.94
2023-11-22T01:15:50.858Z,85.17
2023-11-22T01:18:18.130Z,85.15
2023-11-22T01:20:46.325Z,84.93
2023-11-22T01:23:13.764Z,84.84
2023-11-22T01:25:41.469Z,85.10
2023-11-22T01:28:08.583Z,84.97
2023-11-22T01:30:36.539Z,84.86
2023-11-22T01:33:05.743Z,84.59
2023-11-22T01:35:33.018Z,84.72
2023-11-22T01:38:00.483Z,84.78
2023-11-22T01:40:27.517Z,84.94
2023-11-22T01:42:55.759Z,84.61
2023-11-22T01:45:23.570Z,84.39
2023-11-22T01:47:52.085Z,84.46
2023-11-22T01:50:19.462Z,84.59
2023-11-22T01:52:47.411Z,84.58
2023-11-22T01:55:14.913Z,84.44
2023-11-22T01:57:42.070Z,84.57
2023-11-22T02:00:15.248Z,85.14
2023-11-22T02:02:43.742Z,84.56
2023-11-22T02:05:12.696Z,85.03
2023-11-22T02:07:40.589Z,84.71
2023-11-22T02:10:09.032Z,84.46
2023-11-22T02:12:37.125Z,84.48
2023-11-22T02:15:05.453Z,84.95
2023-11-22T02:17:37.512Z,85.07
2023-11-22T02:20:10.093Z,84.98
2023-11-22T02:22:47.186Z,85.26
2023-11-22T02:25:16.463Z,85.07
2023-11-22T02:27:43.650Z,85.13
2023-11-22T02:30:12.412Z,84.61
2023-11-22T02:32:40.476Z,85.15
2023-11-22T02:35:09.174Z,85.17
2023-11-22T02:37:36.813Z,85.09
2023-11-22T02:40:05.680Z,85.28
2023-11-22T02:42:32.847Z,85.01
2023-11-22T02:44:59.905Z,84.72
2023-11-22T02:47:26.932Z,85.23
2023-11-22T02:49:56.628Z,85.42
2023-11-22T02:52:25.452Z,85.04
2023-11-22T02:54:52.546Z,85.21
2023-11-22T02:57:19.628Z,85.29
2023-11-22T02:59:46.965Z,85.04
2023-11-22T03:02:14.037Z,85.18
2023-11-22T03:04:41.292Z,85.03
2023-11-22T03:07:08.408Z,84.78
2023-11-22T03:09:35.612Z,85.38
2023-11-22T03:12:03.786Z,85.00
2023-11-22T03:14:31.008Z,85.21
2023-11-22T03:16:58.945Z,84.82
2023-11-22T03:19:26.014Z,84.90
2023-11-22T03:21:53.154Z,85.19
2023-11-22T03:24:20.251Z,85.02
2023-11-22T03:26:47.431Z,85.15
2023-11-22T03:29:17.717Z,85.75
2023-11-22T03:31:44.977Z,85.68
2023-11-22T03:34:14.940Z,85.73
2023-11-22T03:36:42.398Z,85.56
2023-11-22T03:39:11.365Z,85.64
2023-11-22T03:41:38.526Z,85.95
2023-11-22T03:44:10.088Z,85.96
2023-11-22T03:46:41.423Z,85.90
2023-11-22T03:49:09.466Z,85.84
2023-11-22T03:51:37.698Z,85.98
2023-11-22T03:54:05.065Z,85.99
2023-11-22T03:56:32.531Z,85.90
2023-11-22T03:58:59.677Z,86.23
2023-11-22T04:01:26.788Z,86.22
2023-11-22T04:03:55.248Z,86.24
2023-11-22T04:06:22.368Z,85.93
2023-11-22T04:08:49.673Z,85.91
2023-11-22T04:11:19.289Z,86.16
2023-11-22T04:13:46.480Z,86.08
2023-11-22T04:16:14.251Z,86.56
2023-11-22T04:18:43.043Z,86.46
2023-11-22T04:21:10.642Z,86.15
2023-11-22T04:23:37.856Z,86.00
2023-11-22T04:26:05.242Z,85.77
2023-11-22T04:28:32.276Z,86.19
2023-11-22T04:30:59.376Z,86.03
2023-11-22T04:33:29.342Z,86.35
2023-11-22T04:35:56.612Z,86.43
2023-11-22T04:38:23.938Z,86.43
2023-11-22T04:40:51.070Z,86.97
2023-11-22T04:43:18.074Z,86.25
2023-11-22T04:45:45.144Z,86.38
2023-11-22T04:48:12.455Z,86.40
2023-11-22T04:50:39.680Z,86.31
2023-11-22T04:53:06.747Z,86.21
2023-11-22T04:55:33.812Z,86.01
2023-11-22T04:58:00.956Z,86.42
2023-11-22T05:00:28.177Z,86.24
2023-11-22T05:02:55.664Z,85.96
2023-11-22T05:05:22.795Z,86.21
2023-11-22T05:07:49.780Z,86.02
2023-11-22T05:10:18.486Z,85.63
2023-11-22T05:12:46.299Z,86.24
2023-11-22T05:15:13.381Z,85.92
2023-11-22T05:17:40.532Z,85.65
2023-11-22T05:20:10.641Z,84.99
2023-11-22T05:22:38.868Z,84.97
2023-11-22T05:25:08.048Z,85.04
2023-11-22T05:27:35.292Z,85.32
2023-11-22T05:30:02.513Z,85.37
2023-11-22T05:32:32.632Z,85.33
2023-11-22T05:35:00.183Z,85.23
2023-11-22T05:37:27.801Z,85.06
2023-11-22T05:39:55.141Z,84.75
2023-11-22T05:42:22.141Z,84.92
2023-11-22T05:44:51.184Z,84.71
2023-11-22T05:47:19.953Z,84.87
2023-11-22T05:49:47.101Z,84.50
2023-11-22T05:52:14.238Z,84.23
2023-11-22T05:54:41.395Z,84.49
2023-11-22T05:57:10.735Z,84.88
2023-11-22T05:59:37.837Z,84.49
2023-11-22T06:11:51.853Z,83.79
2023-11-22T06:14:18.997Z,83.67
2023-11-22T06:16:45.992Z,83.63
2023-11-22T06:19:13.097Z,83.78
2023-11-22T06:21:40.179Z,83.33
2023-11-22T06:24:09.911Z,82.96
2023-11-22T06:26:38.321Z,82.82
2023-11-22T06:29:05.587Z,82.87
2023-11-22T06:31:33.293Z,82.49
2023-11-22T06:34:02.742Z,82.07
2023-11-22T06:36:30.793Z,82.25
2023-11-22T06:38:57.774Z,82.34
2023-11-22T06:41:24.908Z,82.27
2023-11-22T06:43:52.114Z,82.28
2023-11-22T06:46:19.123Z,82.07
2023-11-22T06:48:48.724Z,82.04
2023-11-22T06:51:18.226Z,81.53
2023-11-22T06:53:46.471Z,81.45
2023-11-22T06:56:13.653Z,81.64
2023-11-22T06:58:40.709Z,81.79
2023-11-22T07:01:08.645Z,81.78
2023-11-22T07:03:36.261Z,82.20
2023-11-22T07:06:03.672Z,81.79
2023-11-22T07:08:31.749Z,81.97
2023-11-22T07:10:58.795Z,81.95
2023-11-22T07:13:25.898Z,82.08
2023-11-22T07:15:53.094Z,82.71
2023-11-22T07:18:20.396Z,82.76
2023-11-22T07:20:49.501Z,82.96
2023-11-22T07:23:17.108Z,83.57
2023-11-22T07:25:44.866Z,83.47
2023-11-22T07:28:11.938Z,83.54
2023-11-22T07:30:42.431Z,83.29
2023-11-22T07:33:09.894Z,82.94
2023-11-22T07:35:37.198Z,82.36
2023-11-22T07:38:05.202Z,82.80
2023-11-22T07:40:33.434Z,82.75
2023-11-22T07:43:00.464Z,82.67
2023-11-22T07:45:29.155Z,83.29
2023-11-22T07:47:59.294Z,82.90
2023-11-22T07:50:30.804Z,82.66
2023-11-22T07:52:57.945Z,82.45
2023-11-22T07:55:25.322Z,82.80
2023-11-22T07:57:52.700Z,82.87
2023-11-22T08:00:23.837Z,82.54
2023-11-22T08:02:51.040Z,82.52
2023-11-22T08:05:19.000Z,81.96
2023-11-22T08:07:48.813Z,81.38
2023-11-22T08:10:20.594Z,81.33
2023-11-22T08:12:49.332Z,81.15
2023-11-22T08:15:16.879Z,81.25
2023-11-22T08:17:47.747Z,80.46
2023-11-22T08:20:19.028Z,80.46
2023-11-22T08:22:46.965Z,80.36
2023-11-22T08:25:14.641Z,78.90
2023-11-22T08:27:44.795Z,79.04
2023-11-22T08:30:17.225Z,79.64
2023-11-22T08:32:48.684Z,79.34
2023-11-22T08:35:16.694Z,78.78
2023-11-22T08:37:44.518Z,78.07
2023-11-22T08:40:21.970Z,78.95
2023-11-22T08:42:49.797Z,78.81
2023-11-22T08:45:17.357Z,78.67
2023-11-22T08:47:44.898Z,78.28
2023-11-22T08:50:12.507Z,78.43
2023-11-22T08:52:40.486Z,78.55
2023-11-22T08:55:08.927Z,78.20
2023-11-22T08:57:39.664Z,78.64
2023-11-22T09:00:10.130Z,77.90
2023-11-22T09:02:38.017Z,77.88
2023-11-22T09:05:09.151Z,77.21
2023-11-22T09:07:37.542Z,77.69
2023-11-22T09:10:12.491Z,77.48
2023-11-22T09:12:42.049Z,77.68
2023-11-22T09:15:14.637Z,78.04
2023-11-22T09:17:48.038Z,77.42
2023-11-22T09:20:21.131Z,78.20
2023-11-22T09:22:55.911Z,77.91
2023-11-22T09:25:25.264Z,77.98
2023-11-22T09:28:02.334Z,77.80
2023-11-22T09:30:34.324Z,77.58
2023-11-22T09:33:10.515Z,77.76
2023-11-22T09:35:38.968Z,78.45
2023-11-22T09:38:13.815Z,78.23
2023-11-22T09:40:45.324Z,78.59
2023-11-22T09:43:18.250Z,78.21
2023-11-22T09:45:46.253Z,78.54
2023-11-22T09:48:19.596Z,78.41
2023-11-22T09:51:04.404Z,78.79
2023-11-22T09:53:35.891Z,78.73
2023-11-22T09:56:05.107Z,79.00
2023-11-22T09:58:35.511Z,79.08
2023-11-22T10:01:03.609Z,79.16
2023-11-22T10:03:31.538Z,79.42
2023-11-22T10:06:05.531Z,79.30
2023-11-22T10:08:33.160Z,79.94
2023-11-22T10:11:00.804Z,79.86
2023-11-22T10:13:28.334Z,79.92
2023-11-22T10:15:55.450Z,80.57
2023-11-22T10:18:23.394Z,80.03
2023-11-22T10:20:51.288Z,80.39
2023-11-22T10:23:20.828Z,80.48
2023-11-22T10:25:53.981Z,79.57
2023-11-22T10:28:22.543Z,80.31
2023-11-22T10:30:51.186Z,80.17
2023-11-22T10:33:21.052Z,80.38
2023-11-22T10:35:52.409Z,80.05
2023-11-22T10:38:20.364Z,80.00
2023-11-22T10:40:49.258Z,80.30
2023-11-22T10:43:17.861Z,79.88
2023-11-22T10:45:56.833Z,79.60
2023-11-22T10:48:26.290Z,79.97
2023-11-22T10:50:58.282Z,80.29
2023-11-22T10:53:34.185Z,80.49
2023-11-22T10:56:08.114Z,79.89
2023-11-22T10:58:36.426Z,80.14
2023-11-22T11:01:07.625Z,80.48
2023-11-22T11:03:41.353Z,81.14
2023-11-22T11:06:14.789Z,81.21
2023-11-22T11:08:42.461Z,80.95
2023-11-22T11:11:10.165Z,80.78
2023-11-22T11:13:37.276Z,81.35
2023-11-22T11:16:04.731Z,81.12
2023-11-22T11:18:34.294Z,80.35
2023-11-22T11:21:09.287Z,80.68
2023-11-22T11:23:36.553Z,80.16
2023-11-22T11:26:16.930Z,80.94
2023-11-22T11:28:45.724Z,80.11
2023-11-22T11:31:13.032Z,80.44
2023-11-22T11:33:49.130Z,80.93
2023-11-22T11:36:25.934Z,80.90
2023-11-22T11:39:10.697Z,80.69
2023-11-22T11:41:38.579Z,80.44
2023-11-22T11:44:09.787Z,80.09
2023-11-22T11:46:39.163Z,79.65
2023-11-22T11:49:11.085Z,79.85
2023-11-22T11:51:39.242Z,80.14
2023-11-22T11:54:07.090Z,80.60
2023-11-22T11:56:37.238Z,80.79
2023-11-22T11:59:04.744Z,80.50
2023-11-22T12:01:33.982Z,80.88
2023-11-22T12:04:05.191Z,80.95
2023-11-22T12:06:34.891Z,80.70
2023-11-22T12:09:02.582Z,80.83
2023-11-22T12:11:31.647Z,80.79
2023-11-22T12:14:00.095Z,80.48
2023-11-22T12:16:28.900Z,80.90
2023-11-22T12:18:56.623Z,80.80
2023-11-22T12:21:24.741Z,81.08
2023-11-22T12:23:52.705Z,80.77
2023-11-22T12:26:21.883Z,81.12
2023-11-22T12:28:57.697Z,80.65
2023-11-22T12:31:36.372Z,80.70
2023-11-22T12:34:07.856Z,80.74
2023-11-22T12:36:37.549Z,80.81
2023-11-22T12:39:09.854Z,80.76
2023-11-22T12:41:37.155Z,81.07
2023-11-22T12:44:06.413Z,80.93
2023-11-22T12:47:12.651Z,81.25
2023-11-22T12:49:48.618Z,81.08
2023-11-22T12:52:15.792Z,81.23
2023-11-22T12:54:43.033Z,80.87
2023-11-22T12:57:14.223Z,81.42
2023-11-22T12:59:42.576Z,81.30
2023-11-22T13:02:10.614Z,81.52
2023-11-22T13:04:38.171Z,81.37
2023-11-22T13:07:06.035Z,81.55
2023-11-22T13:09:35.136Z,81.56
2023-11-22T13:12:02.574Z,81.69
2023-11-22T13:14:33.689Z,81.98
2023-11-22T13:17:00.984Z,81.96
2023-11-22T13:19:27.985Z,81.58
2023-11-22T13:21:55.171Z,82.04
2023-11-22T13:24:22.117Z,81.87
2023-11-22T13:26:49.280Z,81.89
2023-11-22T13:29:16.490Z,81.97
2023-11-22T13:31:43.977Z,81.71
2023-11-22T13:34:11.989Z,81.44
2023-11-22T13:36:39.270Z,81.65
2023-11-22T13:39:06.467Z,82.31
2023-11-22T13:41:33.771Z,82.11
2023-11-22T13:44:02.230Z,82.02
2023-11-22T13:46:29.572Z,81.98
2023-11-22T13:48:56.735Z,81.50
2023-11-22T13:51:26.067Z,81.99
2023-11-22T13:53:54.772Z,82.13
2023-11-22T13:56:23.128Z,81.85
2023-11-22T13:58:50.331Z,82.12
2023-11-22T14:01:22.942Z,82.02
2023-11-22T14:03:50.818Z,82.08
2023-11-22T14:06:18.418Z,82.36
2023-11-22T14:08:46.462Z,82.10
2023-11-22T14:11:14.332Z,82.17
2023-11-22T14:13:41.588Z,82.35
2023-11-22T14:16:10.291Z,82.10
2023-11-22T14:18:37.587Z,82.24
2023-11-22T14:21:05.668Z,81.83
2023-11-22T14:23:33.294Z,81.78
2023-11-22T14:26:01.108Z,81.84
2023-11-22T14:28:28.082Z,81.99
2023-11-22T14:30:56.278Z,81.83
2023-11-22T14:33:23.787Z,82.01
2023-11-22T14:35:51.321Z,82.07
2023-11-22T14:38:19.700Z,81.90
2023-11-22T14:40:47.714Z,81.90
2023-11-22T14:43:15.145Z,81.86
2023-11-22T14:45:43.300Z,81.87
2023-11-22T14:48:11.478Z,82.32
2023-11-22T14:50:38.821Z,82.32
2023-11-22T14:53:07.101Z,82.40
2023-11-22T14:55:39.264Z,82.11
2023-11-22T14:58:07.565Z,81.82
2023-11-22T15:00:34.596Z,81.78
2023-11-22T15:03:03.426Z,81.81
2023-11-22T15:05:30.610Z,82.09
2023-11-22T15:07:58.550Z,81.89
2023-11-22T15:10:27.073Z,82.20
2023-11-22T15:12:56.638Z,81.70
2023-11-22T15:15:26.749Z,81.56
2023-11-22T15:17:54.862Z,81.65
2023-11-22T15:20:23.059Z,81.67
2023-11-22T15:22:51.788Z,81.64
2023-11-22T15:25:19.600Z,81.78
2023-11-22T15:27:47.389Z,81.85
2023-11-22T15:30:14.789Z,81.70
2023-11-22T15:32:42.068Z,81.48
2023-11-22T15:35:10.108Z,82.24
2023-11-22T15:37:37.370Z,82.07
2023-11-22T15:40:05.850Z,82.20
2023-11-22T15:42:33.117Z,82.80
2023-11-22T15:45:00.413Z,82.08
2023-11-22T15:47:27.810Z,81.69
2023-11-22T15:49:56.056Z,82.17
2023-11-22T15:52:23.747Z,81.33
2023-11-22T15:54:50.980Z,81.82
2023-11-22T15:57:18.271Z,81.30
2023-11-22T15:59:45.372Z,81.38
2023-11-22T16:02:12.916Z,81.22
2023-11-22T16:04:40.076Z,80.84
2023-11-22T16:07:07.404Z,80.81
2023-11-22T16:09:35.029Z,81.11
2023-11-22T16:12:02.702Z,80.77
2023-11-22T16:14:30.695Z,80.63
2023-11-22T16:16:57.929Z,80.72
2023-11-22T16:19:26.063Z,80.24
2023-11-22T16:21:53.877Z,80.40
2023-11-22T16:24:21.133Z,80.15
2023-11-22T16:26:48.979Z,80.59
2023-11-22T16:29:17.294Z,80.11
2023-11-22T16:31:44.962Z,80.48
2023-11-22T16:34:12.553Z,80.03
2023-11-22T16:36:39.702Z,79.99
2023-11-22T16:39:20.280Z,79.83
2023-11-22T16:41:52.336Z,79.71
2023-11-22T16:44:23.265Z,79.96
2023-11-22T16:46:50.589Z,79.85
2023-11-22T16:49:17.932Z,79.18
2023-11-22T16:51:47.153Z,79.62
2023-11-22T16:54:15.140Z,79.52
2023-11-22T16:56:42.568Z,79.13
2023-11-22T16:59:10.201Z,79.49
2023-11-22T17:01:37.548Z,79.74
2023-11-22T17:04:04.878Z,79.79
2023-11-22T17:06:32.001Z,79.71
2023-11-22T17:09:02.181Z,79.75
2023-11-22T17:11:29.347Z,79.82
2023-11-22T17:13:56.420Z,80.16
2023-11-22T17:16:25.380Z,79.96
2023-11-22T17:18:52.633Z,79.93
2023-11-22T17:21:19.956Z,79.98
2023-11-22T17:23:47.054Z,79.71
2023-11-22T17:26:14.254Z,78.97
2023-11-22T17:28:41.706Z,79.55
2023-11-22T17:31:08.941Z,79.95
2023-11-22T17:33:36.706Z,79.43
2023-11-22T17:36:05.538Z,78.92
2023-11-22T17:38:32.942Z,78.35
2023-11-22T17:41:01.609Z,78.85
2023-11-22T17:43:29.326Z,78.58
2023-11-22T17:45:57.161Z,78.58
2023-11-22T17:48:25.458Z,78.42
2023-11-22T17:50:52.801Z,78.32
2023-11-22T17:53:20.059Z,78.07
2023-11-22T17:55:47.120Z,78.04
2023-11-22T17:58:15.869Z,78.53
2023-11-22T18:00:43.028Z,78.86
2023-11-22T18:03:10.434Z,78.81
2023-11-22T18:06:03.539Z,78.69
2023-11-22T18:08:36.513Z,78.96
2023-11-22T18:11:03.804Z,79.01
2023-11-22T18:13:30.909Z,78.69
2023-11-22T18:15:57.988Z,78.69
2023-11-22T18:18:25.341Z,78.82
2023-11-22T18:20:52.988Z,78.98
2023-11-22T18:23:20.137Z,79.05
2023-11-22T18:25:47.438Z,78.86
2023-11-22T18:28:16.216Z,79.20
2023-11-22T18:30:44.686Z,79.20
2023-11-22T18:33:13.333Z,79.00
2023-11-22T18:35:43.597Z,79.05
2023-11-22T18:38:10.954Z,79.59
2023-11-22T18:40:39.338Z,79.70
2023-11-22T18:43:07.478Z,79.21
2023-11-22T18:45:34.991Z,79.39
2023-11-22T18:48:02.761Z,79.22
2023-11-22T18:50:30.347Z,79.88
2023-11-22T18:52:57.589Z,79.90
2023-11-22T18:55:24.561Z,79.76
2023-11-22T18:57:51.840Z,79.84
2023-11-22T19:00:21.020Z,79.97
2023-11-22T19:02:48.396Z,80.15
2023-11-22T19:05:18.739Z,79.98
2023-11-22T19:07:49.752Z,79.93
2023-11-22T19:10:18.762Z,79.84
2023-11-22T19:15:13.134Z,80.08
2023-11-22T19:17:40.376Z,79.72
2023-11-22T19:20:11.570Z,79.46
2023-11-22T19:22:38.809Z,79.92
2023-11-22T19:25:06.538Z,79.83
2023-11-22T19:27:33.935Z,79.65
2023-11-22T19:30:01.052Z,79.79
2023-11-22T19:32:28.342Z,79.79
2023-11-22T19:34:55.391Z,79.61
2023-11-22T19:37:24.999Z,79.22
2023-11-22T19:39:52.019Z,79.62
2023-11-22T19:42:19.068Z,80.08
2023-11-22T19:44:46.251Z,80.32
2023-11-22T19:47:13.367Z,80.18
2023-11-22T19:49:41.482Z,80.25
2023-11-22T19:52:09.023Z,80.11
2023-11-22T19:54:37.665Z,80.40
2023-11-22T19:57:05.160Z,80.47
2023-11-22T19:59:34.949Z,80.18
2023-11-22T20:02:03.782Z,80.64
2023-11-22T20:04:31.117Z,80.69
2023-11-22T20:06:58.305Z,80.44
2023-11-22T20:09:26.140Z,80.82
2023-11-22T20:11:53.959Z,80.91
2023-11-22T20:14:21.114Z,80.94
2023-11-22T20:16:48.236Z,81.02
2023-11-22T20:19:15.480Z,81.62
2023-11-22T20:21:43.459Z,81.65
2023-11-22T20:24:11.458Z,81.62
2023-11-22T20:26:39.623Z,82.04
2023-11-22T20:29:06.798Z,81.64
2023-11-22T20:31:33.961Z,81.67
2023-11-22T20:34:01.265Z,81.57
2023-11-22T20:36:28.441Z,81.42
2023-11-22T20:38:55.690Z,81.54
2023-11-22T20:41:26.159Z,82.29
2023-11-22T20:43:53.729Z,82.75
2023-11-22T20:46:21.012Z,82.58
2023-11-22T20:48:48.491Z,82.53
2023-11-22T20:51:15.889Z,82.44
2023-11-22T20:53:43.118Z,82.59
2023-11-22T20:56:11.026Z,82.41
2023-11-22T20:58:38.380Z,82.75
2023-11-22T21:01:05.659Z,82.59
2023-11-22T21:03:32.880Z,82.39
2023-11-22T21:06:00.286Z,82.30
2023-11-22T21:08:27.566Z,82.75
2023-11-22T21:10:54.746Z,82.37
2023-11-22T21:13:22.991Z,82.98
2023-11-22T21:15:51.802Z,82.71
2023-11-22T21:18:19.109Z,82.18
2023-11-22T21:20:47.571Z,82.42
2023-11-22T21:23:14.923Z,82.34
2023-11-22T21:25:42.055Z,82.85
2023-11-22T21:28:09.218Z,83.05
2023-11-22T21:30:36.266Z,83.44
2023-11-22T21:33:03.578Z,83.12
2023-11-22T21:35:31.166Z,83.32
2023-11-22T21:37:58.274Z,83.17
2023-11-22T21:40:25.477Z,83.36
2023-11-22T21:42:52.724Z,83.41
2023-11-22T21:45:20.531Z,83.31
2023-11-22T21:47:47.664Z,83.29
2023-11-22T21:50:14.990Z,83.24
2023-11-22T21:52:43.813Z,83.23
2023-11-22T21:55:13.202Z,83.25
2023-11-22T21:57:40.281Z,83.81
2023-11-22T22:00:09.741Z,83.47
2023-11-22T22:02:37.011Z,83.83
2023-11-22T22:05:04.855Z,83.59
2023-11-22T22:07:32.288Z,83.95
2023-11-22T22:10:00.070Z,83.69
2023-11-22T22:12:27.247Z,83.56
2023-11-22T22:14:54.939Z,83.77
2023-11-22T22:17:22.111Z,83.24
2023-11-22T22:19:49.204Z,83.67
2023-11-22T22:22:16.379Z,83.27
2023-11-22T22:24:43.336Z,83.39
2023-11-22T22:27:10.507Z,83.12
2023-11-22T22:29:37.744Z,83.06
2023-11-22T22:32:05.214Z,83.49
2023-11-22T22:34:32.573Z,82.94
2023-11-22T22:36:59.778Z,82.82
2023-11-22T22:39:27.354Z,83.12
2023-11-22T22:41:54.445Z,83.49
2023-11-22T22:44:22.077Z,83.02
2023-11-22T22:46:49.187Z,83.30
2023-11-22T22:49:16.771Z,83.04
2023-11-22T22:51:44.076Z,81.85
2023-11-22T22:54:11.698Z,82.10
2023-11-22T22:56:38.915Z,82.56
2023-11-22T22:59:07.781Z,82.87
2023-11-22T23:01:35.481Z,82.43
2023-11-22T23:04:04.867Z,81.43
2023-11-22T23:06:32.199Z,81.46
2023-11-22T23:08:59.237Z,81.79
2023-11-22T23:11:26.324Z,81.06
2023-11-22T23:13:53.556Z,80.74
2023-11-22T23:16:20.715Z,80.53
2023-11-22T23:18:55.675Z,80.17
2023-11-22T23:21:27.938Z,79.95
2023-11-22T23:23:55.550Z,78.59
2023-11-22T23:26:26.984Z,78.21
2023-11-22T23:28:54.090Z,78.73
2023-11-22T23:31:21.244Z,77.71
2023-11-22T23:33:51.538Z,78.09
2023-11-22T23:36:18.992Z,77.58
2023-11-22T23:38:47.156Z,77.73
2023-11-22T23:41:14.295Z,76.79
2023-11-22T23:43:41.678Z,77.03
2023-11-22T23:46:10.000Z,77.22
2023-11-22T23:48:37.544Z,77.40
2023-11-22T23:51:06.134Z,76.91
2023-11-22T23:53:33.237Z,77.19
2023-11-22T23:56:02.038Z,77.18
2023-11-22T23:58:29.225Z,77.35
